sensor_id;sensor_type;location;lat;lon;timestamp;P1;durP1;ratioP1;P2;durP2;ratioP2
55461;SDS011;41327;45.102;20.624;2022-12-07T00:01:15;52.40;;;14.68;;
55461;SDS011;41327;45.102;20.624;2022-12-07T00:03:48;44.03;;;14.87;;
55461;SDS011;41327;45.102;20.624;2022-12-07T00:06:16;37.80;;;14.88;;
55461;SDS011;41327;45.102;20.624;2022-12-07T00:08:42;50.22;;;14.52;;
55461;SDS011;41327;45.102;20.624;2022-12-07T00:11:09;47.53;;;14.85;;
55461;SDS011;41327;45.102;20.624;2022-12-07T00:13:43;40.50;;;14.00;;
55461;SDS011;41327;45.102;20.624;2022-12-07T00:16:11;38.53;;;13.40;;
55461;SDS011;41327;45.102;20.624;2022-12-07T00:18:37;35.17;;;11.57;;
55461;SDS011;41327;45.102;20.624;2022-12-07T00:21:08;36.00;;;12.40;;
55461;SDS011;41327;45.102;20.624;2022-12-07T00:23:39;31.60;;;12.38;;
55461;SDS011;41327;45.102;20.624;2022-12-07T00:26:25;27.88;;;11.20;;
55461;SDS011;41327;45.102;20.624;2022-12-07T00:29:00;31.02;;;11.80;;
55461;SDS011;41327;45.102;20.624;2022-12-07T00:31:35;32.67;;;12.05;;
55461;SDS011;41327;45.102;20.624;2022-12-07T00:34:18;30.95;;;11.55;;
55461;SDS011;41327;45.102;20.624;2022-12-07T00:36:44;32.38;;;13.18;;
55461;SDS011;41327;45.102;20.624;2022-12-07T00:39:10;39.58;;;14.05;;
55461;SDS011;41327;45.102;20.624;2022-12-07T00:41:36;34.38;;;12.80;;
55461;SDS011;41327;45.102;20.624;2022-12-07T00:44:03;35.35;;;11.93;;
55461;SDS011;41327;45.102;20.624;2022-12-07T00:46:30;36.00;;;12.45;;
55461;SDS011;41327;45.102;20.624;2022-12-07T00:48:57;36.38;;;13.55;;
55461;SDS011;41327;45.102;20.624;2022-12-07T00:51:24;39.03;;;14.02;;
55461;SDS011;41327;45.102;20.624;2022-12-07T00:53:52;44.15;;;14.02;;
55461;SDS011;41327;45.102;20.624;2022-12-07T00:56:27;45.33;;;14.18;;
55461;SDS011;41327;45.102;20.624;2022-12-07T00:58:58;41.92;;;16.77;;
55461;SDS011;41327;45.102;20.624;2022-12-07T01:01:26;48.25;;;16.48;;
55461;SDS011;41327;45.102;20.624;2022-12-07T01:03:54;53.65;;;17.02;;
55461;SDS011;41327;45.102;20.624;2022-12-07T01:06:21;42.92;;;16.13;;
55461;SDS011;41327;45.102;20.624;2022-12-07T01:08:47;59.30;;;23.35;;
55461;SDS011;41327;45.102;20.624;2022-12-07T01:11:16;49.72;;;17.13;;
55461;SDS011;41327;45.102;20.624;2022-12-07T01:13:42;42.67;;;16.20;;
55461;SDS011;41327;45.102;20.624;2022-12-07T01:16:10;44.35;;;16.80;;
55461;SDS011;41327;45.102;20.624;2022-12-07T01:18:37;47.13;;;17.23;;
55461;SDS011;41327;45.102;20.624;2022-12-07T01:21:04;47.05;;;14.85;;
55461;SDS011;41327;45.102;20.624;2022-12-07T01:23:30;40.15;;;15.60;;
55461;SDS011;41327;45.102;20.624;2022-12-07T01:25:57;38.00;;;15.45;;
55461;SDS011;41327;45.102;20.624;2022-12-07T01:28:24;43.42;;;17.50;;
55461;SDS011;41327;45.102;20.624;2022-12-07T01:30:55;36.20;;;14.90;;
55461;SDS011;41327;45.102;20.624;2022-12-07T01:33:29;42.53;;;17.10;;
55461;SDS011;41327;45.102;20.624;2022-12-07T01:36:02;40.35;;;14.43;;
55461;SDS011;41327;45.102;20.624;2022-12-07T01:38:41;35.60;;;15.00;;
55461;SDS011;41327;45.102;20.624;2022-12-07T01:41:09;35.15;;;14.20;;
55461;SDS011;41327;45.102;20.624;2022-12-07T01:43:36;34.83;;;13.55;;
55461;SDS011;41327;45.102;20.624;2022-12-07T01:46:24;34.28;;;14.50;;
55461;SDS011;41327;45.102;20.624;2022-12-07T01:48:50;37.28;;;13.70;;
55461;SDS011;41327;45.102;20.624;2022-12-07T01:51:17;40.63;;;15.93;;
55461;SDS011;41327;45.102;20.624;2022-12-07T01:53:43;40.08;;;15.82;;
55461;SDS011;41327;45.102;20.624;2022-12-07T01:56:11;37.17;;;15.63;;
55461;SDS011;41327;45.102;20.624;2022-12-07T01:58:42;41.72;;;15.88;;
55461;SDS011;41327;45.102;20.624;2022-12-07T02:01:11;44.55;;;16.60;;
55461;SDS011;41327;45.102;20.624;2022-12-07T02:03:42;40.10;;;15.63;;
55461;SDS011;41327;45.102;20.624;2022-12-07T02:06:08;40.05;;;17.05;;
55461;SDS011;41327;45.102;20.624;2022-12-07T02:08:36;39.15;;;15.68;;
55461;SDS011;41327;45.102;20.624;2022-12-07T02:11:03;34.92;;;16.10;;
55461;SDS011;41327;45.102;20.624;2022-12-07T02:13:31;44.53;;;15.75;;
55461;SDS011;41327;45.102;20.624;2022-12-07T02:18:59;41.70;;;15.90;;
55461;SDS011;41327;45.102;20.624;2022-12-07T02:24:13;42.60;;;17.30;;
55461;SDS011;41327;45.102;20.624;2022-12-07T02:29:31;42.75;;;16.20;;
55461;SDS011;41327;45.102;20.624;2022-12-07T02:34:49;42.15;;;16.85;;
55461;SDS011;41327;45.102;20.624;2022-12-07T02:37:29;46.47;;;18.90;;
55461;SDS011;41327;45.102;20.624;2022-12-07T02:42:43;47.90;;;17.95;;
55461;SDS011;41327;45.102;20.624;2022-12-07T02:45:12;47.75;;;17.83;;
55461;SDS011;41327;45.102;20.624;2022-12-07T02:47:39;43.60;;;16.33;;
55461;SDS011;41327;45.102;20.624;2022-12-07T02:50:06;48.63;;;17.83;;
55461;SDS011;41327;45.102;20.624;2022-12-07T02:52:32;44.85;;;17.33;;
55461;SDS011;41327;45.102;20.624;2022-12-07T02:54:58;40.83;;;16.08;;
55461;SDS011;41327;45.102;20.624;2022-12-07T02:57:31;41.60;;;16.55;;
55461;SDS011;41327;45.102;20.624;2022-12-07T03:00:21;46.50;;;16.27;;
55461;SDS011;41327;45.102;20.624;2022-12-07T03:02:51;49.08;;;17.33;;
55461;SDS011;41327;45.102;20.624;2022-12-07T03:05:32;44.83;;;15.65;;
55461;SDS011;41327;45.102;20.624;2022-12-07T03:13:34;55.08;;;17.50;;
55461;SDS011;41327;45.102;20.624;2022-12-07T03:21:47;54.30;;;17.08;;
55461;SDS011;41327;45.102;20.624;2022-12-07T03:24:20;45.05;;;15.77;;
55461;SDS011;41327;45.102;20.624;2022-12-07T03:26:55;49.08;;;16.95;;
55461;SDS011;41327;45.102;20.624;2022-12-07T03:29:48;55.47;;;16.20;;
55461;SDS011;41327;45.102;20.624;2022-12-07T03:32:14;49.17;;;16.35;;
55461;SDS011;41327;45.102;20.624;2022-12-07T03:34:50;49.38;;;16.17;;
55461;SDS011;41327;45.102;20.624;2022-12-07T03:37:20;51.15;;;16.63;;
55461;SDS011;41327;45.102;20.624;2022-12-07T03:42:44;45.70;;;16.42;;
55461;SDS011;41327;45.102;20.624;2022-12-07T03:45:11;45.40;;;15.32;;
55461;SDS011;41327;45.102;20.624;2022-12-07T03:47:46;42.35;;;16.23;;
55461;SDS011;41327;45.102;20.624;2022-12-07T03:56:08;38.25;;;14.23;;
55461;SDS011;41327;45.102;20.624;2022-12-07T03:58:34;39.90;;;14.63;;
55461;SDS011;41327;45.102;20.624;2022-12-07T04:01:00;40.97;;;13.63;;
55461;SDS011;41327;45.102;20.624;2022-12-07T04:03:27;32.35;;;12.68;;
55461;SDS011;41327;45.102;20.624;2022-12-07T04:05:52;37.15;;;12.57;;
55461;SDS011;41327;45.102;20.624;2022-12-07T04:08:18;31.25;;;13.30;;
55461;SDS011;41327;45.102;20.624;2022-12-07T04:10:44;36.22;;;13.55;;
55461;SDS011;41327;45.102;20.624;2022-12-07T04:13:09;35.13;;;13.85;;
55461;SDS011;41327;45.102;20.624;2022-12-07T04:15:36;31.65;;;12.55;;
55461;SDS011;41327;45.102;20.624;2022-12-07T04:18:01;29.92;;;13.88;;
55461;SDS011;41327;45.102;20.624;2022-12-07T04:20:27;35.60;;;13.13;;
55461;SDS011;41327;45.102;20.624;2022-12-07T04:22:52;30.25;;;13.00;;
55461;SDS011;41327;45.102;20.624;2022-12-07T04:25:18;29.52;;;11.88;;
55461;SDS011;41327;45.102;20.624;2022-12-07T04:27:43;39.78;;;16.42;;
55461;SDS011;41327;45.102;20.624;2022-12-07T04:30:09;43.20;;;16.90;;
55461;SDS011;41327;45.102;20.624;2022-12-07T04:32:35;43.80;;;16.70;;
55461;SDS011;41327;45.102;20.624;2022-12-07T04:35:00;42.38;;;14.45;;
55461;SDS011;41327;45.102;20.624;2022-12-07T04:37:26;32.47;;;12.75;;
55461;SDS011;41327;45.102;20.624;2022-12-07T04:39:51;33.35;;;12.02;;
55461;SDS011;41327;45.102;20.624;2022-12-07T04:42:17;33.92;;;12.63;;
55461;SDS011;41327;45.102;20.624;2022-12-07T04:44:42;38.03;;;14.60;;
55461;SDS011;41327;45.102;20.624;2022-12-07T04:47:08;40.35;;;15.60;;
55461;SDS011;41327;45.102;20.624;2022-12-07T04:49:34;33.97;;;14.43;;
55461;SDS011;41327;45.102;20.624;2022-12-07T04:52:00;38.60;;;14.68;;
55461;SDS011;41327;45.102;20.624;2022-12-07T04:54:26;37.85;;;15.07;;
55461;SDS011;41327;45.102;20.624;2022-12-07T04:56:51;36.90;;;14.05;;
55461;SDS011;41327;45.102;20.624;2022-12-07T04:59:17;31.42;;;13.48;;
55461;SDS011;41327;45.102;20.624;2022-12-07T05:01:42;36.22;;;12.88;;
55461;SDS011;41327;45.102;20.624;2022-12-07T05:04:10;33.88;;;12.77;;
55461;SDS011;41327;45.102;20.624;2022-12-07T05:06:36;29.08;;;11.13;;
55461;SDS011;41327;45.102;20.624;2022-12-07T05:09:03;28.65;;;11.45;;
55461;SDS011;41327;45.102;20.624;2022-12-07T05:11:30;28.75;;;12.18;;
55461;SDS011;41327;45.102;20.624;2022-12-07T05:14:16;25.77;;;9.90;;
55461;SDS011;41327;45.102;20.624;2022-12-07T05:16:45;23.65;;;9.27;;
55461;SDS011;41327;45.102;20.624;2022-12-07T05:19:13;23.67;;;9.65;;
55461;SDS011;41327;45.102;20.624;2022-12-07T05:21:40;18.35;;;7.93;;
55461;SDS011;41327;45.102;20.624;2022-12-07T05:24:06;23.05;;;9.82;;
55461;SDS011;41327;45.102;20.624;2022-12-07T05:26:34;27.85;;;10.02;;
55461;SDS011;41327;45.102;20.624;2022-12-07T05:29:00;25.65;;;9.35;;
55461;SDS011;41327;45.102;20.624;2022-12-07T05:31:26;28.42;;;9.48;;
55461;SDS011;41327;45.102;20.624;2022-12-07T05:33:51;27.45;;;10.82;;
55461;SDS011;41327;45.102;20.624;2022-12-07T05:36:17;27.80;;;10.52;;
55461;SDS011;41327;45.102;20.624;2022-12-07T05:38:43;28.52;;;11.15;;
55461;SDS011;41327;45.102;20.624;2022-12-07T05:41:11;31.08;;;12.25;;
55461;SDS011;41327;45.102;20.624;2022-12-07T05:43:58;42.67;;;19.45;;
55461;SDS011;41327;45.102;20.624;2022-12-07T05:46:24;34.42;;;13.80;;
55461;SDS011;41327;45.102;20.624;2022-12-07T05:48:49;25.67;;;11.48;;
55461;SDS011;41327;45.102;20.624;2022-12-07T05:51:15;19.45;;;8.60;;
55461;SDS011;41327;45.102;20.624;2022-12-07T05:53:40;18.85;;;8.30;;
55461;SDS011;41327;45.102;20.624;2022-12-07T05:56:08;25.50;;;10.43;;
55461;SDS011;41327;45.102;20.624;2022-12-07T05:58:34;28.65;;;11.25;;
55461;SDS011;41327;45.102;20.624;2022-12-07T06:01:18;32.97;;;14.55;;
55461;SDS011;41327;45.102;20.624;2022-12-07T06:03:43;37.60;;;17.48;;
55461;SDS011;41327;45.102;20.624;2022-12-07T06:06:11;29.02;;;12.80;;
55461;SDS011;41327;45.102;20.624;2022-12-07T06:08:36;23.02;;;9.77;;
55461;SDS011;41327;45.102;20.624;2022-12-07T06:11:08;16.75;;;7.18;;
55461;SDS011;41327;45.102;20.624;2022-12-07T06:13:53;17.50;;;7.45;;
55461;SDS011;41327;45.102;20.624;2022-12-07T06:16:20;20.65;;;7.32;;
55461;SDS011;41327;45.102;20.624;2022-12-07T06:18:46;16.10;;;7.13;;
55461;SDS011;41327;45.102;20.624;2022-12-07T06:21:13;16.60;;;6.78;;
55461;SDS011;41327;45.102;20.624;2022-12-07T06:23:39;13.77;;;7.38;;
55461;SDS011;41327;45.102;20.624;2022-12-07T06:26:06;17.10;;;7.53;;
55461;SDS011;41327;45.102;20.624;2022-12-07T06:28:32;15.85;;;7.10;;
55461;SDS011;41327;45.102;20.624;2022-12-07T06:31:00;16.67;;;7.15;;
55461;SDS011;41327;45.102;20.624;2022-12-07T06:33:26;17.83;;;7.00;;
55461;SDS011;41327;45.102;20.624;2022-12-07T06:35:52;31.90;;;17.13;;
55461;SDS011;41327;45.102;20.624;2022-12-07T06:38:18;72.68;;;33.55;;
55461;SDS011;41327;45.102;20.624;2022-12-07T06:40:44;45.22;;;22.15;;
55461;SDS011;41327;45.102;20.624;2022-12-07T06:43:10;95.97;;;47.42;;
55461;SDS011;41327;45.102;20.624;2022-12-07T06:45:57;189.00;;;61.60;;
55461;SDS011;41327;45.102;20.624;2022-12-07T06:48:33;39.92;;;18.08;;
55461;SDS011;41327;45.102;20.624;2022-12-07T06:50:59;207.77;;;73.28;;
55461;SDS011;41327;45.102;20.624;2022-12-07T06:53:26;54.50;;;25.02;;
55461;SDS011;41327;45.102;20.624;2022-12-07T06:55:52;34.38;;;18.23;;
55461;SDS011;41327;45.102;20.624;2022-12-07T06:58:19;36.00;;;18.50;;
55461;SDS011;41327;45.102;20.624;2022-12-07T07:00:47;35.80;;;19.98;;
55461;SDS011;41327;45.102;20.624;2022-12-07T07:03:16;43.50;;;25.02;;
55461;SDS011;41327;45.102;20.624;2022-12-07T07:05:43;37.10;;;21.35;;
55461;SDS011;41327;45.102;20.624;2022-12-07T07:08:13;33.92;;;15.82;;
55461;SDS011;41327;45.102;20.624;2022-12-07T07:10:41;30.40;;;12.07;;
55461;SDS011;41327;45.102;20.624;2022-12-07T07:13:09;26.98;;;12.27;;
55461;SDS011;41327;45.102;20.624;2022-12-07T07:15:37;26.48;;;11.90;;
55461;SDS011;41327;45.102;20.624;2022-12-07T07:18:03;32.03;;;14.68;;
55461;SDS011;41327;45.102;20.624;2022-12-07T07:20:30;39.55;;;19.23;;
55461;SDS011;41327;45.102;20.624;2022-12-07T07:22:56;34.58;;;14.98;;
55461;SDS011;41327;45.102;20.624;2022-12-07T07:25:22;36.00;;;17.45;;
55461;SDS011;41327;45.102;20.624;2022-12-07T07:27:47;59.15;;;29.52;;
55461;SDS011;41327;45.102;20.624;2022-12-07T07:30:13;69.57;;;32.10;;
55461;SDS011;41327;45.102;20.624;2022-12-07T07:32:38;50.92;;;21.20;;
55461;SDS011;41327;45.102;20.624;2022-12-07T07:35:04;50.58;;;22.02;;
55461;SDS011;41327;45.102;20.624;2022-12-07T07:37:30;40.25;;;18.90;;
55461;SDS011;41327;45.102;20.624;2022-12-07T07:39:56;38.95;;;17.83;;
55461;SDS011;41327;45.102;20.624;2022-12-07T07:42:21;31.35;;;13.15;;
55461;SDS011;41327;45.102;20.624;2022-12-07T07:44:47;31.92;;;14.75;;
55461;SDS011;41327;45.102;20.624;2022-12-07T07:47:12;38.22;;;16.70;;
55461;SDS011;41327;45.102;20.624;2022-12-07T07:49:38;43.75;;;21.38;;
55461;SDS011;41327;45.102;20.624;2022-12-07T07:52:04;41.50;;;18.33;;
55461;SDS011;41327;45.102;20.624;2022-12-07T07:54:30;35.03;;;14.90;;
55461;SDS011;41327;45.102;20.624;2022-12-07T07:56:56;45.42;;;17.48;;
55461;SDS011;41327;45.102;20.624;2022-12-07T07:59:21;57.97;;;23.42;;
55461;SDS011;41327;45.102;20.624;2022-12-07T08:01:47;42.97;;;17.92;;
55461;SDS011;41327;45.102;20.624;2022-12-07T08:04:13;28.98;;;14.20;;
55461;SDS011;41327;45.102;20.624;2022-12-07T08:06:38;26.25;;;11.60;;
55461;SDS011;41327;45.102;20.624;2022-12-07T08:09:04;25.15;;;10.38;;
55461;SDS011;41327;45.102;20.624;2022-12-07T08:11:31;29.95;;;12.27;;
55461;SDS011;41327;45.102;20.624;2022-12-07T08:13:57;39.00;;;17.20;;
55461;SDS011;41327;45.102;20.624;2022-12-07T08:16:22;46.63;;;21.10;;
55461;SDS011;41327;45.102;20.624;2022-12-07T08:18:48;48.33;;;21.70;;
55461;SDS011;41327;45.102;20.624;2022-12-07T08:21:14;47.63;;;22.10;;
55461;SDS011;41327;45.102;20.624;2022-12-07T08:23:40;39.65;;;19.58;;
55461;SDS011;41327;45.102;20.624;2022-12-07T08:26:07;62.75;;;28.05;;
55461;SDS011;41327;45.102;20.624;2022-12-07T08:28:37;81.60;;;37.47;;
55461;SDS011;41327;45.102;20.624;2022-12-07T08:31:04;95.78;;;42.13;;
55461;SDS011;41327;45.102;20.624;2022-12-07T08:33:31;76.70;;;30.17;;
55461;SDS011;41327;45.102;20.624;2022-12-07T08:36:05;56.30;;;27.33;;
55461;SDS011;41327;45.102;20.624;2022-12-07T08:38:36;52.85;;;20.20;;
55461;SDS011;41327;45.102;20.624;2022-12-07T08:41:03;54.88;;;22.67;;
55461;SDS011;41327;45.102;20.624;2022-12-07T08:43:29;61.33;;;26.85;;
55461;SDS011;41327;45.102;20.624;2022-12-07T08:48:26;66.70;;;25.92;;
55461;SDS011;41327;45.102;20.624;2022-12-07T08:50:52;62.28;;;25.13;;
55461;SDS011;41327;45.102;20.624;2022-12-07T08:53:17;39.00;;;18.33;;
55461;SDS011;41327;45.102;20.624;2022-12-07T08:55:44;58.92;;;23.65;;
55461;SDS011;41327;45.102;20.624;2022-12-07T08:58:10;34.28;;;15.02;;
55461;SDS011;41327;45.102;20.624;2022-12-07T09:00:36;41.58;;;18.80;;
55461;SDS011;41327;45.102;20.624;2022-12-07T09:03:01;74.63;;;33.88;;
55461;SDS011;41327;45.102;20.624;2022-12-07T09:05:26;41.25;;;19.95;;
55461;SDS011;41327;45.102;20.624;2022-12-07T09:07:54;38.55;;;16.30;;
55461;SDS011;41327;45.102;20.624;2022-12-07T09:10:20;34.45;;;16.50;;
55461;SDS011;41327;45.102;20.624;2022-12-07T09:12:46;31.88;;;14.85;;
55461;SDS011;41327;45.102;20.624;2022-12-07T09:15:11;40.35;;;18.83;;
55461;SDS011;41327;45.102;20.624;2022-12-07T09:17:37;59.35;;;28.35;;
55461;SDS011;41327;45.102;20.624;2022-12-07T09:20:04;41.78;;;20.20;;
55461;SDS011;41327;45.102;20.624;2022-12-07T09:22:30;54.40;;;24.73;;
55461;SDS011;41327;45.102;20.624;2022-12-07T09:24:57;62.33;;;32.65;;
55461;SDS011;41327;45.102;20.624;2022-12-07T09:27:23;57.05;;;29.20;;
55461;SDS011;41327;45.102;20.624;2022-12-07T09:29:49;40.88;;;19.48;;
55461;SDS011;41327;45.102;20.624;2022-12-07T09:32:15;41.85;;;19.17;;
55461;SDS011;41327;45.102;20.624;2022-12-07T09:34:40;35.53;;;15.35;;
55461;SDS011;41327;45.102;20.624;2022-12-07T09:37:06;54.25;;;23.60;;
55461;SDS011;41327;45.102;20.624;2022-12-07T09:39:31;100.90;;;39.00;;
55461;SDS011;41327;45.102;20.624;2022-12-07T09:41:57;82.80;;;34.88;;
55461;SDS011;41327;45.102;20.624;2022-12-07T09:44:24;50.05;;;21.80;;
55461;SDS011;41327;45.102;20.624;2022-12-07T09:46:50;39.30;;;16.77;;
55461;SDS011;41327;45.102;20.624;2022-12-07T09:49:19;38.67;;;16.83;;
55461;SDS011;41327;45.102;20.624;2022-12-07T09:51:46;40.28;;;17.85;;
55461;SDS011;41327;45.102;20.624;2022-12-07T09:54:14;55.22;;;21.55;;
55461;SDS011;41327;45.102;20.624;2022-12-07T09:56:40;36.35;;;19.67;;
55461;SDS011;41327;45.102;20.624;2022-12-07T09:59:05;65.72;;;31.70;;
55461;SDS011;41327;45.102;20.624;2022-12-07T10:01:32;62.17;;;31.58;;
55461;SDS011;41327;45.102;20.624;2022-12-07T10:04:00;47.58;;;23.42;;
55461;SDS011;41327;45.102;20.624;2022-12-07T10:06:32;46.72;;;24.77;;
55461;SDS011;41327;45.102;20.624;2022-12-07T10:08:58;46.85;;;23.45;;
55461;SDS011;41327;45.102;20.624;2022-12-07T10:11:23;33.13;;;14.27;;
55461;SDS011;41327;45.102;20.624;2022-12-07T10:13:52;41.38;;;18.00;;
55461;SDS011;41327;45.102;20.624;2022-12-07T10:18:53;50.55;;;21.70;;
55461;SDS011;41327;45.102;20.624;2022-12-07T10:21:23;41.92;;;18.90;;
55461;SDS011;41327;45.102;20.624;2022-12-07T10:24:12;38.92;;;15.77;;
55461;SDS011;41327;45.102;20.624;2022-12-07T10:31:57;61.58;;;28.73;;
55461;SDS011;41327;45.102;20.624;2022-12-07T10:34:26;36.63;;;20.00;;
55461;SDS011;41327;45.102;20.624;2022-12-07T10:37:06;66.55;;;30.75;;
55461;SDS011;41327;45.102;20.624;2022-12-07T10:39:41;45.38;;;20.17;;
55461;SDS011;41327;45.102;20.624;2022-12-07T10:42:15;49.20;;;20.38;;
55461;SDS011;41327;45.102;20.624;2022-12-07T10:50:45;77.20;;;25.88;;
55461;SDS011;41327;45.102;20.624;2022-12-07T11:07:27;37.58;;;19.08;;
55461;SDS011;41327;45.102;20.624;2022-12-07T11:12:41;53.60;;;25.08;;
55461;SDS011;41327;45.102;20.624;2022-12-07T11:18:19;53.88;;;22.73;;
55461;SDS011;41327;45.102;20.624;2022-12-07T11:21:04;45.53;;;22.70;;
55461;SDS011;41327;45.102;20.624;2022-12-07T11:29:17;27.98;;;12.05;;
55461;SDS011;41327;45.102;20.624;2022-12-07T11:37:47;19.70;;;10.43;;
55461;SDS011;41327;45.102;20.624;2022-12-07T11:40:25;43.55;;;20.17;;
55461;SDS011;41327;45.102;20.624;2022-12-07T11:42:59;67.18;;;33.92;;
55461;SDS011;41327;45.102;20.624;2022-12-07T11:45:31;73.50;;;32.85;;
55461;SDS011;41327;45.102;20.624;2022-12-07T11:48:43;65.60;;;31.65;;
55461;SDS011;41327;45.102;20.624;2022-12-07T11:50:59;55.55;;;28.10;;
55461;SDS011;41327;45.102;20.624;2022-12-07T11:53:28;82.57;;;39.45;;
55461;SDS011;41327;45.102;20.624;2022-12-07T11:56:00;75.60;;;36.38;;
55461;SDS011;41327;45.102;20.624;2022-12-07T12:01:47;70.50;;;34.28;;
55461;SDS011;41327;45.102;20.624;2022-12-07T12:04:07;60.08;;;27.63;;
55461;SDS011;41327;45.102;20.624;2022-12-07T12:06:47;45.90;;;22.35;;
55461;SDS011;41327;45.102;20.624;2022-12-07T12:09:21;35.15;;;15.48;;
55461;SDS011;41327;45.102;20.624;2022-12-07T12:12:10;26.45;;;15.65;;
55461;SDS011;41327;45.102;20.624;2022-12-07T12:23:05;19.75;;;10.40;;
55461;SDS011;41327;45.102;20.624;2022-12-07T12:25:39;23.73;;;10.10;;
55461;SDS011;41327;45.102;20.624;2022-12-07T12:28:16;20.00;;;9.20;;
55461;SDS011;41327;45.102;20.624;2022-12-07T12:30:47;10.40;;;5.80;;
55461;SDS011;41327;45.102;20.624;2022-12-07T12:33:43;11.57;;;5.30;;
55461;SDS011;41327;45.102;20.624;2022-12-07T12:36:18;13.70;;;6.40;;
55461;SDS011;41327;45.102;20.624;2022-12-07T12:46:45;38.72;;;20.00;;
55461;SDS011;41327;45.102;20.624;2022-12-07T13:02:34;124.65;;;53.30;;
55461;SDS011;41327;45.102;20.624;2022-12-07T13:12:59;73.85;;;33.15;;
55461;SDS011;41327;45.102;20.624;2022-12-07T13:15:47;62.47;;;30.08;;
55461;SDS011;41327;45.102;20.624;2022-12-07T13:18:25;65.65;;;29.90;;
55461;SDS011;41327;45.102;20.624;2022-12-07T13:21:01;77.22;;;34.08;;
55461;SDS011;41327;45.102;20.624;2022-12-07T13:26:18;97.63;;;37.92;;
55461;SDS011;41327;45.102;20.624;2022-12-07T13:29:12;179.77;;;67.22;;
55461;SDS011;41327;45.102;20.624;2022-12-07T13:31:43;94.90;;;41.65;;
55461;SDS011;41327;45.102;20.624;2022-12-07T13:34:33;94.25;;;43.25;;
55461;SDS011;41327;45.102;20.624;2022-12-07T13:37:02;52.50;;;25.13;;
55461;SDS011;41327;45.102;20.624;2022-12-07T13:39:51;74.72;;;31.67;;
55461;SDS011;41327;45.102;20.624;2022-12-07T13:42:27;67.80;;;29.48;;
55461;SDS011;41327;45.102;20.624;2022-12-07T13:44:54;56.78;;;27.05;;
55461;SDS011;41327;45.102;20.624;2022-12-07T13:47:25;54.08;;;28.52;;
55461;SDS011;41327;45.102;20.624;2022-12-07T13:50:27;58.25;;;30.52;;
55461;SDS011;41327;45.102;20.624;2022-12-07T13:52:55;58.20;;;29.48;;
55461;SDS011;41327;45.102;20.624;2022-12-07T13:55:23;61.17;;;29.92;;
55461;SDS011;41327;45.102;20.624;2022-12-07T13:57:49;59.20;;;30.25;;
55461;SDS011;41327;45.102;20.624;2022-12-07T14:00:18;74.05;;;35.00;;
55461;SDS011;41327;45.102;20.624;2022-12-07T14:05:28;110.18;;;49.85;;
55461;SDS011;41327;45.102;20.624;2022-12-07T14:08:05;90.93;;;45.78;;
55461;SDS011;41327;45.102;20.624;2022-12-07T14:10:35;90.03;;;44.40;;
55461;SDS011;41327;45.102;20.624;2022-12-07T14:13:02;90.53;;;41.92;;
55461;SDS011;41327;45.102;20.624;2022-12-07T14:15:30;69.90;;;34.33;;
55461;SDS011;41327;45.102;20.624;2022-12-07T14:17:58;82.28;;;40.97;;
55461;SDS011;41327;45.102;20.624;2022-12-07T14:20:35;118.57;;;63.63;;
55461;SDS011;41327;45.102;20.624;2022-12-07T14:23:01;118.70;;;61.80;;
55461;SDS011;41327;45.102;20.624;2022-12-07T14:26:04;97.38;;;42.33;;
55461;SDS011;41327;45.102;20.624;2022-12-07T14:28:30;61.58;;;29.33;;
55461;SDS011;41327;45.102;20.624;2022-12-07T14:30:57;75.30;;;33.63;;
55461;SDS011;41327;45.102;20.624;2022-12-07T14:33:23;91.75;;;41.00;;
55461;SDS011;41327;45.102;20.624;2022-12-07T14:35:50;83.90;;;36.42;;
55461;SDS011;41327;45.102;20.624;2022-12-07T14:38:20;90.80;;;36.97;;
55461;SDS011;41327;45.102;20.624;2022-12-07T14:40:46;73.40;;;32.85;;
55461;SDS011;41327;45.102;20.624;2022-12-07T14:43:12;75.07;;;33.85;;
55461;SDS011;41327;45.102;20.624;2022-12-07T14:45:40;95.80;;;42.85;;
55461;SDS011;41327;45.102;20.624;2022-12-07T14:48:15;91.82;;;41.63;;
55461;SDS011;41327;45.102;20.624;2022-12-07T14:50:45;92.72;;;41.03;;
55461;SDS011;41327;45.102;20.624;2022-12-07T14:53:15;71.68;;;32.60;;
55461;SDS011;41327;45.102;20.624;2022-12-07T14:55:41;58.00;;;28.40;;
55461;SDS011;41327;45.102;20.624;2022-12-07T14:58:14;87.75;;;35.78;;
55461;SDS011;41327;45.102;20.624;2022-12-07T15:00:40;52.67;;;27.70;;
55461;SDS011;41327;45.102;20.624;2022-12-07T15:03:06;65.13;;;31.10;;
55461;SDS011;41327;45.102;20.624;2022-12-07T15:05:32;72.38;;;34.13;;
55461;SDS011;41327;45.102;20.624;2022-12-07T15:07:58;78.13;;;36.28;;
55461;SDS011;41327;45.102;20.624;2022-12-07T15:10:25;64.85;;;35.33;;
55461;SDS011;41327;45.102;20.624;2022-12-07T15:12:55;66.88;;;33.42;;
55461;SDS011;41327;45.102;20.624;2022-12-07T15:15:41;70.90;;;34.90;;
55461;SDS011;41327;45.102;20.624;2022-12-07T15:18:06;104.38;;;52.30;;
55461;SDS011;41327;45.102;20.624;2022-12-07T15:20:32;115.38;;;55.70;;
55461;SDS011;41327;45.102;20.624;2022-12-07T15:26:19;125.70;;;57.33;;
55461;SDS011;41327;45.102;20.624;2022-12-07T15:28:45;122.75;;;56.65;;
55461;SDS011;41327;45.102;20.624;2022-12-07T15:31:11;111.18;;;51.97;;
55461;SDS011;41327;45.102;20.624;2022-12-07T15:33:41;129.48;;;61.22;;
55461;SDS011;41327;45.102;20.624;2022-12-07T15:36:08;141.55;;;67.35;;
55461;SDS011;41327;45.102;20.624;2022-12-07T15:38:35;145.68;;;68.43;;
55461;SDS011;41327;45.102;20.624;2022-12-07T15:41:00;158.25;;;71.25;;
55461;SDS011;41327;45.102;20.624;2022-12-07T15:43:26;141.05;;;68.22;;
55461;SDS011;41327;45.102;20.624;2022-12-07T15:46:10;136.38;;;63.17;;
55461;SDS011;41327;45.102;20.624;2022-12-07T15:48:35;163.65;;;72.45;;
55461;SDS011;41327;45.102;20.624;2022-12-07T15:51:07;171.30;;;75.75;;
55461;SDS011;41327;45.102;20.624;2022-12-07T15:53:34;183.50;;;77.18;;
55461;SDS011;41327;45.102;20.624;2022-12-07T15:56:00;203.48;;;85.78;;
55461;SDS011;41327;45.102;20.624;2022-12-07T15:58:26;218.85;;;95.78;;
55461;SDS011;41327;45.102;20.624;2022-12-07T16:00:52;240.63;;;100.35;;
55461;SDS011;41327;45.102;20.624;2022-12-07T16:03:18;230.70;;;97.90;;
55461;SDS011;41327;45.102;20.624;2022-12-07T16:05:50;228.05;;;98.60;;
55461;SDS011;41327;45.102;20.624;2022-12-07T16:08:16;361.55;;;148.65;;
55461;SDS011;41327;45.102;20.624;2022-12-07T16:10:42;281.85;;;114.30;;
55461;SDS011;41327;45.102;20.624;2022-12-07T16:13:08;207.98;;;89.32;;
55461;SDS011;41327;45.102;20.624;2022-12-07T16:15:38;187.70;;;82.45;;
55461;SDS011;41327;45.102;20.624;2022-12-07T16:18:04;138.95;;;66.30;;
55461;SDS011;41327;45.102;20.624;2022-12-07T16:20:30;107.43;;;51.05;;
55461;SDS011;41327;45.102;20.624;2022-12-07T16:22:55;119.68;;;55.78;;
55461;SDS011;41327;45.102;20.624;2022-12-07T16:25:21;139.35;;;64.72;;
55461;SDS011;41327;45.102;20.624;2022-12-07T16:27:47;223.60;;;87.55;;
55461;SDS011;41327;45.102;20.624;2022-12-07T16:30:13;137.77;;;55.75;;
55461;SDS011;41327;45.102;20.624;2022-12-07T16:32:40;137.07;;;64.35;;